sensor_id;sensor_type;location;lat;lon;timestamp;pressure;altitude;pressure_sealevel;temperature;humidity
39105;BME280;46464;51.154;13.812;2022-10-22T00:02:23;98902.41;;;10.16;100.00
39105;BME280;46464;51.154;13.812;2022-10-22T00:04:51;98906.91;;;10.15;100.00
39105;BME280;46464;51.154;13.812;2022-10-22T00:07:19;98921.34;;;10.13;100.00
39105;BME280;46464;51.154;13.812;2022-10-22T00:09:45;98911.66;;;10.10;100.00
39105;BME280;46464;51.154;13.812;2022-10-22T00:12:13;98910.84;;;10.08;100.00
39105;BME280;46464;51.154;13.812;2022-10-22T00:14:39;98897.50;;;10.07;100.00
39105;BME280;46464;51.154;13.812;2022-10-22T00:17:06;98892.31;;;10.04;100.00
39105;BME280;46464;51.154;13.812;2022-10-22T00:19:37;98905.09;;;9.98;100.00
39105;BME280;46464;51.154;13.812;2022-10-22T00:22:04;98894.34;;;9.98;100.00
39105;BME280;46464;51.154;13.812;2022-10-22T00:24:31;98887.56;;;10.09;100.00
39105;BME280;46464;51.154;13.812;2022-10-22T00:26:57;98887.09;;;10.00;100.00
39105;BME280;46464;51.154;13.812;2022-10-22T00:29:24;98884.59;;;9.97;100.00
39105;BME280;46464;51.154;13.812;2022-10-22T00:31:50;98891.22;;;9.90;100.00
39105;BME280;46464;51.154;13.812;2022-10-22T00:34:17;98884.31;;;9.86;100.00
39105;BME280;46464;51.154;13.812;2022-10-22T00:36:45;98885.25;;;9.85;100.00
39105;BME280;46464;51.154;13.812;2022-10-22T00:39:12;98877.97;;;9.87;100.00
39105;BME280;46464;51.154;13.812;2022-10-22T00:41:42;98871.56;;;9.90;100.00
39105;BME280;46464;51.154;13.812;2022-10-22T00:46:53;98879.38;;;9.94;100.00
39105;BME280;46464;51.154;13.812;2022-10-22T00:49:20;98887.28;;;9.97;100.00
39105;BME280;46464;51.154;13.812;2022-10-22T00:51:46;98886.50;;;9.95;100.00
39105;BME280;46464;51.154;13.812;2022-10-22T00:54:12;98888.13;;;9.98;100.00
39105;BME280;46464;51.154;13.812;2022-10-22T00:56:39;98884.34;;;10.02;100.00
39105;BME280;46464;51.154;13.812;2022-10-22T00:59:05;98881.66;;;10.02;100.00
39105;BME280;46464;51.154;13.812;2022-10-22T01:01:37;98878.81;;;10.05;100.00
39105;BME280;46464;51.154;13.812;2022-10-22T01:04:04;98878.97;;;10.20;100.00
39105;BME280;46464;51.154;13.812;2022-10-22T01:06:31;98862.22;;;10.14;100.00
39105;BME280;46464;51.154;13.812;2022-10-22T01:11:48;98880.13;;;10.14;100.00
39105;BME280;46464;51.154;13.812;2022-10-22T01:19:35;98883.69;;;10.14;100.00
39105;BME280;46464;51.154;13.812;2022-10-22T01:22:12;98885.50;;;10.14;100.00
39105;BME280;46464;51.154;13.812;2022-10-22T01:24:46;98874.88;;;10.12;100.00
39105;BME280;46464;51.154;13.812;2022-10-22T01:29:51;98880.59;;;10.22;100.00
39105;BME280;46464;51.154;13.812;2022-10-22T01:32:22;98885.09;;;10.22;100.00
39105;BME280;46464;51.154;13.812;2022-10-22T01:34:55;98888.81;;;10.19;100.00
39105;BME280;46464;51.154;13.812;2022-10-22T01:37:22;98883.34;;;10.21;100.00
39105;BME280;46464;51.154;13.812;2022-10-22T01:39:50;98885.28;;;10.18;100.00
39105;BME280;46464;51.154;13.812;2022-10-22T01:42:17;98878.16;;;10.17;100.00
39105;BME280;46464;51.154;13.812;2022-10-22T01:44:43;98886.13;;;10.19;100.00
39105;BME280;46464;51.154;13.812;2022-10-22T01:47:13;98878.97;;;10.20;100.00
39105;BME280;46464;51.154;13.812;2022-10-22T02:05:04;98870.41;;;10.29;100.00
39105;BME280;46464;51.154;13.812;2022-10-22T02:07:34;98870.41;;;10.29;100.00
39105;BME280;46464;51.154;13.812;2022-10-22T02:10:02;98873.78;;;10.32;100.00
39105;BME280;46464;51.154;13.812;2022-10-22T02:12:29;98880.97;;;10.32;100.00
39105;BME280;46464;51.154;13.812;2022-10-22T02:14:57;98882.78;;;10.31;100.00
39105;BME280;46464;51.154;13.812;2022-10-22T02:17:24;98882.63;;;10.34;100.00
39105;BME280;46464;51.154;13.812;2022-10-22T02:19:55;98874.56;;;10.34;100.00
39105;BME280;46464;51.154;13.812;2022-10-22T02:22:22;98866.28;;;10.39;100.00
39105;BME280;46464;51.154;13.812;2022-10-22T02:24:49;98874.28;;;10.41;100.00
39105;BME280;46464;51.154;13.812;2022-10-22T02:29:57;98869.19;;;10.52;100.00
39105;BME280;46464;51.154;13.812;2022-10-22T02:32:43;98869.28;;;10.51;100.00
39105;BME280;46464;51.154;13.812;2022-10-22T02:35:12;98873.31;;;10.58;100.00
39105;BME280;46464;51.154;13.812;2022-10-22T02:37:40;98868.13;;;10.55;100.00
39105;BME280;46464;51.154;13.812;2022-10-22T02:40:07;98866.25;;;10.57;100.00
39105;BME280;46464;51.154;13.812;2022-10-22T02:42:34;98860.16;;;10.53;100.00
39105;BME280;46464;51.154;13.812;2022-10-22T02:45:02;98863.91;;;10.51;100.00
39105;BME280;46464;51.154;13.812;2022-10-22T02:47:29;98863.91;;;10.51;100.00
39105;BME280;46464;51.154;13.812;2022-10-22T02:49:55;98859.38;;;10.51;100.00
39105;BME280;46464;51.154;13.812;2022-10-22T02:52:22;98866.50;;;10.52;100.00
39105;BME280;46464;51.154;13.812;2022-10-22T02:54:48;98862.91;;;10.52;100.00
39105;BME280;46464;51.154;13.812;2022-10-22T02:57:15;98858.44;;;10.52;100.00
39105;BME280;46464;51.154;13.812;2022-10-22T02:59:41;98856.44;;;10.56;100.00
39105;BME280;46464;51.154;13.812;2022-10-22T03:02:08;98865.53;;;10.53;100.00
39105;BME280;46464;51.154;13.812;2022-10-22T03:04:34;98861.22;;;10.51;100.00
39105;BME280;46464;51.154;13.812;2022-10-22T03:07:00;98866.66;;;10.49;100.00
39105;BME280;46464;51.154;13.812;2022-10-22T03:09:27;98872.81;;;10.51;100.00
39105;BME280;46464;51.154;13.812;2022-10-22T03:11:53;98876.44;;;10.50;100.00
39105;BME280;46464;51.154;13.812;2022-10-22T03:14:20;98871.06;;;10.50;100.00
39105;BME280;46464;51.154;13.812;2022-10-22T03:16:47;98867.53;;;10.49;100.00
39105;BME280;46464;51.154;13.812;2022-10-22T03:19:13;98864.84;;;10.49;100.00
39105;BME280;46464;51.154;13.812;2022-10-22T03:21:41;98865.69;;;10.50;100.00
39105;BME280;46464;51.154;13.812;2022-10-22T03:24:28;98863.09;;;10.48;100.00
39105;BME280;46464;51.154;13.812;2022-10-22T03:26:55;98868.22;;;10.53;100.00
39105;BME280;46464;51.154;13.812;2022-10-22T03:29:22;98869.09;;;10.54;100.00
39105;BME280;46464;51.154;13.812;2022-10-22T03:31:50;98858.44;;;10.52;100.00
39105;BME280;46464;51.154;13.812;2022-10-22T03:34:17;98863.91;;;10.51;100.00
39105;BME280;46464;51.154;13.812;2022-10-22T03:36:43;98876.34;;;10.52;100.00
39105;BME280;46464;51.154;13.812;2022-10-22T03:39:10;98860.22;;;10.52;100.00
39105;BME280;46464;51.154;13.812;2022-10-22T03:41:38;98867.25;;;10.54;100.00
39105;BME280;46464;51.154;13.812;2022-10-22T03:44:04;98871.69;;;10.55;100.00
39105;BME280;46464;51.154;13.812;2022-10-22T03:46:31;98878.88;;;10.55;100.00
39105;BME280;46464;51.154;13.812;2022-10-22T03:48:57;98872.63;;;10.54;100.00
39105;BME280;46464;51.154;13.812;2022-10-22T03:51:27;98880.63;;;10.56;100.00
39105;BME280;46464;51.154;13.812;2022-10-22T03:53:54;98885.03;;;10.57;100.00
39105;BME280;46464;51.154;13.812;2022-10-22T03:56:21;98894.91;;;10.56;100.00
39105;BME280;46464;51.154;13.812;2022-10-22T03:58:47;98893.88;;;10.59;100.00
39105;BME280;46464;51.154;13.812;2022-10-22T04:01:14;98886.75;;;10.58;100.00
39105;BME280;46464;51.154;13.812;2022-10-22T04:03:40;98898.28;;;10.60;100.00
39105;BME280;46464;51.154;13.812;2022-10-22T04:06:08;98895.59;;;10.60;100.00
39105;BME280;46464;51.154;13.812;2022-10-22T04:08:35;98900.03;;;10.61;100.00
39105;BME280;46464;51.154;13.812;2022-10-22T04:11:01;98893.78;;;10.60;100.00
39105;BME280;46464;51.154;13.812;2022-10-22T04:13:28;98886.50;;;10.62;100.00
39105;BME280;46464;51.154;13.812;2022-10-22T04:15:54;98875.06;;;10.59;100.00
39105;BME280;46464;51.154;13.812;2022-10-22T04:18:22;98884.84;;;10.60;100.00
39105;BME280;46464;51.154;13.812;2022-10-22T04:20:50;98884.94;;;10.58;100.00
39105;BME280;46464;51.154;13.812;2022-10-22T04:23:16;98884.16;;;10.56;100.00
39105;BME280;46464;51.154;13.812;2022-10-22T04:25:43;98889.38;;;10.59;100.00
39105;BME280;46464;51.154;13.812;2022-10-22T04:28:09;98897.69;;;10.55;100.00
39105;BME280;46464;51.154;13.812;2022-10-22T04:30:36;98890.66;;;10.52;100.00
39105;BME280;46464;51.154;13.812;2022-10-22T04:33:02;98898.97;;;10.47;100.00
39105;BME280;46464;51.154;13.812;2022-10-22T04:35:28;98897.06;;;10.49;100.00
39105;BME280;46464;51.154;13.812;2022-10-22T04:37:55;98896.28;;;10.47;100.00
39105;BME280;46464;51.154;13.812;2022-10-22T04:40:22;98896.28;;;10.47;100.00
39105;BME280;46464;51.154;13.812;2022-10-22T04:42:48;98898.03;;;10.48;100.00
39105;BME280;46464;51.154;13.812;2022-10-22T04:45:14;98895.34;;;10.48;100.00
39105;BME280;46464;51.154;13.812;2022-10-22T04:47:41;98900.59;;;10.50;100.00
39105;BME280;46464;51.154;13.812;2022-10-22T04:50:08;98903.28;;;10.50;100.00
39105;BME280;46464;51.154;13.812;2022-10-22T04:52:34;98895.25;;;10.50;100.00
39105;BME280;46464;51.154;13.812;2022-10-22T04:55:01;98890.75;;;10.51;100.00
39105;BME280;46464;51.154;13.812;2022-10-22T04:57:30;98888.91;;;10.51;100.00
39105;BME280;46464;51.154;13.812;2022-10-22T04:59:57;98896.03;;;10.52;100.00
39105;BME280;46464;51.154;13.812;2022-10-22T05:02:23;98886.16;;;10.53;100.00
39105;BME280;46464;51.154;13.812;2022-10-22T05:04:50;98885.19;;;10.54;100.00
39105;BME280;46464;51.154;13.812;2022-10-22T05:07:16;98887.72;;;10.57;100.00
39105;BME280;46464;51.154;13.812;2022-10-22T05:09:43;98870.47;;;10.61;100.00
39105;BME280;46464;51.154;13.812;2022-10-22T05:12:09;98883.03;;;10.60;100.00
39105;BME280;46464;51.154;13.812;2022-10-22T05:14:36;98881.84;;;10.66;100.00
39105;BME280;46464;51.154;13.812;2022-10-22T05:17:09;98883.56;;;10.67;100.00
39105;BME280;46464;51.154;13.812;2022-10-22T05:19:36;98890.00;;;10.64;100.00
39105;BME280;46464;51.154;13.812;2022-10-22T05:22:03;98883.91;;;10.61;100.00
39105;BME280;46464;51.154;13.812;2022-10-22T05:24:30;98891.97;;;10.61;100.00
39105;BME280;46464;51.154;13.812;2022-10-22T05:26:58;98886.75;;;10.58;100.00
39105;BME280;46464;51.154;13.812;2022-10-22T05:29:25;98893.97;;;10.57;100.00
39105;BME280;46464;51.154;13.812;2022-10-22T05:31:51;98905.75;;;10.55;100.00
39105;BME280;46464;51.154;13.812;2022-10-22T05:34:18;98912.16;;;10.52;100.00
39105;BME280;46464;51.154;13.812;2022-10-22T05:36:45;98911.25;;;10.52;100.00
39105;BME280;46464;51.154;13.812;2022-10-22T05:39:12;98919.50;;;10.48;100.00
39105;BME280;46464;51.154;13.812;2022-10-22T05:41:38;98915.94;;;10.48;100.00
39105;BME280;46464;51.154;13.812;2022-10-22T05:44:05;98927.66;;;10.47;100.00
39105;BME280;46464;51.154;13.812;2022-10-22T05:46:34;98924.88;;;10.48;100.00
39105;BME280;46464;51.154;13.812;2022-10-22T05:49:02;98927.56;;;10.48;100.00
39105;BME280;46464;51.154;13.812;2022-10-22T05:51:29;98922.19;;;10.48;100.00
39105;BME280;46464;51.154;13.812;2022-10-22T05:53:58;98929.22;;;10.51;100.00
39105;BME280;46464;51.154;13.812;2022-10-22T05:56:25;98926.44;;;10.53;100.00
39105;BME280;46464;51.154;13.812;2022-10-22T05:58:52;98927.22;;;10.55;100.00
39105;BME280;46464;51.154;13.812;2022-10-22T06:01:23;98930.75;;;10.55;100.00
39105;BME280;46464;51.154;13.812;2022-10-22T06:03:53;98937.78;;;10.58;100.00
39105;BME280;46464;51.154;13.812;2022-10-22T06:08:50;98944.31;;;10.70;100.00
39105;BME280;46464;51.154;13.812;2022-10-22T06:11:18;98942.66;;;10.67;100.00
39105;BME280;46464;51.154;13.812;2022-10-22T06:13:45;98950.63;;;10.69;100.00
39105;BME280;46464;51.154;13.812;2022-10-22T06:16:12;98961.38;;;10.69;100.00
39105;BME280;46464;51.154;13.812;2022-10-22T06:18:38;98964.88;;;10.71;100.00
39105;BME280;46464;51.154;13.812;2022-10-22T06:21:09;98963.03;;;10.71;100.00
39105;BME280;46464;51.154;13.812;2022-10-22T06:23:36;98964.59;;;10.75;100.00
39105;BME280;46464;51.154;13.812;2022-10-22T06:26:04;98958.28;;;10.76;100.00
39105;BME280;46464;51.154;13.812;2022-10-22T06:28:30;98951.81;;;10.80;100.00
39105;BME280;46464;51.154;13.812;2022-10-22T06:30:57;98951.00;;;10.78;100.00
39105;BME280;46464;51.154;13.812;2022-10-22T06:33:24;98958.81;;;10.83;100.00
39105;BME280;46464;51.154;13.812;2022-10-22T06:35:51;98944.25;;;10.87;100.00
39105;BME280;46464;51.154;13.812;2022-10-22T06:38:17;98955.84;;;10.88;100.00
39105;BME280;46464;51.154;13.812;2022-10-22T06:40:44;98970.19;;;10.88;100.00
39105;BME280;46464;51.154;13.812;2022-10-22T06:43:11;98966.53;;;10.89;100.00
39105;BME280;46464;51.154;13.812;2022-10-22T06:45:37;98969.16;;;10.91;100.00
39105;BME280;46464;51.154;13.812;2022-10-22T06:48:04;98978.84;;;10.93;100.00
39105;BME280;46464;51.154;13.812;2022-10-22T06:50:32;98986.81;;;10.95;100.00
39105;BME280;46464;51.154;13.812;2022-10-22T06:52:59;98994.63;;;11.00;100.00
39105;BME280;46464;51.154;13.812;2022-10-22T06:55:26;98988.41;;;10.99;100.00
39105;BME280;46464;51.154;13.812;2022-10-22T06:57:53;98988.31;;;11.01;100.00
39105;BME280;46464;51.154;13.812;2022-10-22T07:00:20;98988.22;;;11.02;100.00
39105;BME280;46464;51.154;13.812;2022-10-22T07:02:51;98989.03;;;11.04;100.00
39105;BME280;46464;51.154;13.812;2022-10-22T07:05:25;98995.16;;;11.06;100.00
39105;BME280;46464;51.154;13.812;2022-10-22T07:07:51;98988.78;;;11.09;100.00
39105;BME280;46464;51.154;13.812;2022-10-22T07:10:17;98997.50;;;11.12;100.00
39105;BME280;46464;51.154;13.812;2022-10-22T07:12:44;99000.13;;;11.14;100.00
39105;BME280;46464;51.154;13.812;2022-10-22T07:15:10;99001.78;;;11.17;100.00
39105;BME280;46464;51.154;13.812;2022-10-22T07:17:37;99013.28;;;11.19;100.00
39105;BME280;46464;51.154;13.812;2022-10-22T07:20:08;99026.25;;;11.28;100.00
39105;BME280;46464;51.154;13.812;2022-10-22T07:22:35;99029.03;;;11.26;100.00
39105;BME280;46464;51.154;13.812;2022-10-22T07:25:01;99022.59;;;11.29;100.00
39105;BME280;46464;51.154;13.812;2022-10-22T07:27:32;99024.34;;;11.30;100.00
39105;BME280;46464;51.154;13.812;2022-10-22T07:29:59;99028.84;;;11.29;100.00
39105;BME280;46464;51.154;13.812;2022-10-22T07:32:26;99034.22;;;11.45;100.00
39105;BME280;46464;51.154;13.812;2022-10-22T07:34:53;99036.31;;;11.40;100.00
39105;BME280;46464;51.154;13.812;2022-10-22T07:37:19;99041.50;;;11.43;100.00
39105;BME280;46464;51.154;13.812;2022-10-22T07:39:47;99043.16;;;11.46;100.00
39105;BME280;46464;51.154;13.812;2022-10-22T07:42:14;99038.75;;;11.45;100.00
39105;BME280;46464;51.154;13.812;2022-10-22T07:44:40;99040.47;;;11.46;100.00
39105;BME280;46464;51.154;13.812;2022-10-22T07:47:07;99046.53;;;11.50;100.00
39105;BME280;46464;51.154;13.812;2022-10-22T07:49:33;99055.31;;;11.53;100.00
39105;BME280;46464;51.154;13.812;2022-10-22T07:52:00;99060.78;;;11.52;100.00
39105;BME280;46464;51.154;13.812;2022-10-22T07:54:26;99051.75;;;11.53;100.00
39105;BME280;46464;51.154;13.812;2022-10-22T07:56:53;99061.38;;;11.57;100.00
39105;BME280;46464;51.154;13.812;2022-10-22T07:59:19;99057.03;;;11.54;100.00
39105;BME280;46464;51.154;13.812;2022-10-22T08:01:45;99056.94;;;11.56;100.00
39105;BME280;46464;51.154;13.812;2022-10-22T08:04:12;99065.47;;;11.64;100.00
39105;BME280;46464;51.154;13.812;2022-10-22T08:06:38;99059.03;;;11.67;100.00
39105;BME280;46464;51.154;13.812;2022-10-22T08:09:10;99064.06;;;11.73;100.00
39105;BME280;46464;51.154;13.812;2022-10-22T08:11:37;99073.19;;;11.70;100.00
39105;BME280;46464;51.154;13.812;2022-10-22T08:14:04;99076.84;;;11.69;100.00
39105;BME280;46464;51.154;13.812;2022-10-22T08:16:30;99082.81;;;11.74;100.00
39105;BME280;46464;51.154;13.812;2022-10-22T08:18:57;99091.69;;;11.76;100.00
39105;BME280;46464;51.154;13.812;2022-10-22T08:21:23;99089.09;;;11.75;100.00
39105;BME280;46464;51.154;13.812;2022-10-22T08:23:50;99098.09;;;11.74;100.00
39105;BME280;46464;51.154;13.812;2022-10-22T08:26:16;99093.78;;;11.71;100.00
39105;BME280;46464;51.154;13.812;2022-10-22T08:28:43;99102.09;;;11.67;100.00
39105;BME280;46464;51.154;13.812;2022-10-22T08:31:10;99098.44;;;11.68;100.00
39105;BME280;46464;51.154;13.812;2022-10-22T08:33:36;99102.19;;;11.65;100.00
39105;BME280;46464;51.154;13.812;2022-10-22T08:36:04;99104.00;;;11.65;100.00
39105;BME280;46464;51.154;13.812;2022-10-22T08:38:30;99099.16;;;11.71;100.00
39105;BME280;46464;51.154;13.812;2022-10-22T08:41:07;99097.31;;;11.72;100.00
39105;BME280;46464;51.154;13.812;2022-10-22T08:46:06;99098.56;;;11.82;100.00
39105;BME280;46464;51.154;13.812;2022-10-22T08:51:14;99104.47;;;12.05;100.00
39105;BME280;46464;51.154;13.812;2022-10-22T08:54:01;99103.16;;;12.12;100.00
39105;BME280;46464;51.154;13.812;2022-10-22T08:56:31;99110.59;;;12.23;100.00
39105;BME280;46464;51.154;13.812;2022-10-22T08:59:00;99109.47;;;12.27;100.00
39105;BME280;46464;51.154;13.812;2022-10-22T09:01:34;99110.91;;;12.33;100.00
39105;BME280;46464;51.154;13.812;2022-10-22T09:06:32;99110.88;;;12.49;100.00
39105;BME280;46464;51.154;13.812;2022-10-22T09:09:00;99104.28;;;12.54;100.00
39105;BME280;46464;51.154;13.812;2022-10-22T09:11:32;99100.94;;;12.65;100.00
39105;BME280;46464;51.154;13.812;2022-10-22T09:14:00;99107.97;;;12.68;100.00
39105;BME280;46464;51.154;13.812;2022-10-22T09:21:48;99120.34;;;13.01;100.00
39105;BME280;46464;51.154;13.812;2022-10-22T09:24:27;99118.03;;;13.09;100.00
39105;BME280;46464;51.154;13.812;2022-10-22T09:26:58;99112.19;;;13.02;100.00
39105;BME280;46464;51.154;13.812;2022-10-22T09:29:30;99122.47;;;13.10;100.00
39105;BME280;46464;51.154;13.812;2022-10-22T09:31:57;99128.06;;;13.21;100.00
39105;BME280;46464;51.154;13.812;2022-10-22T09:34:24;99122.19;;;13.29;100.00
39105;BME280;46464;51.154;13.812;2022-10-22T09:37:00;99114.66;;;13.34;100.00
39105;BME280;46464;51.154;13.812;2022-10-22T09:39:31;99117.13;;;13.39;100.00
39105;BME280;46464;51.154;13.812;2022-10-22T09:41:57;99111.44;;;13.44;100.00
39105;BME280;46464;51.154;13.812;2022-10-22T09:44:24;99111.81;;;13.52;100.00
39105;BME280;46464;51.154;13.812;2022-10-22T09:46:50;99109.50;;;13.60;100.00
39105;BME280;46464;51.154;13.812;2022-10-22T09:49:18;99111.00;;;13.64;100.00
39105;BME280;46464;51.154;13.812;2022-10-22T09:54:20;99110.16;;;13.78;100.00
39105;BME280;46464;51.154;13.812;2022-10-22T09:57:33;99111.84;;;13.94;100.00
39105;BME280;46464;51.154;13.812;2022-10-22T09:59:37;99108.03;;;14.11;100.00
39105;BME280;46464;51.154;13.812;2022-10-22T10:02:14;99110.22;;;14.18;100.00
39105;BME280;46464;51.154;13.812;2022-10-22T10:04:55;99114.50;;;14.35;100.00
39105;BME280;46464;51.154;13.812;2022-10-22T10:07:23;99117.88;;;14.52;100.00
39105;BME280;46464;51.154;13.812;2022-10-22T10:09:50;99132.34;;;14.65;100.00
39105;BME280;46464;51.154;13.812;2022-10-22T10:12:27;99126.63;;;14.83;100.00
39105;BME280;46464;51.154;13.812;2022-10-22T10:18:10;99129.03;;;15.00;100.00
39105;BME280;46464;51.154;13.812;2022-10-22T10:20:45;99125.94;;;15.20;100.00
39105;BME280;46464;51.154;13.812;2022-10-22T10:36:03;99127.19;;;15.65;100.00
39105;BME280;46464;51.154;13.812;2022-10-22T10:38:40;99125.66;;;15.74;100.00
39105;BME280;46464;51.154;13.812;2022-10-22T10:46:56;99137.22;;;15.76;99.11
39105;BME280;46464;51.154;13.812;2022-10-22T10:49:25;99137.56;;;15.85;99.78
39105;BME280;46464;51.154;13.812;2022-10-22T10:56:56;99130.00;;;16.14;96.86
39105;BME280;46464;51.154;13.812;2022-10-22T11:00:24;99132.25;;;16.20;94.40
39105;BME280;46464;51.154;13.812;2022-10-22T11:07:54;99139.63;;;15.94;93.47
39105;BME280;46464;51.154;13.812;2022-10-22T11:10:27;99141.03;;;15.87;95.80
39105;BME280;46464;51.154;13.812;2022-10-22T11:12:56;99148.94;;;15.64;98.31
39105;BME280;46464;51.154;13.812;2022-10-22T11:17:53;99150.03;;;15.23;100.00
39105;BME280;46464;51.154;13.812;2022-10-22T11:20:24;99140.31;;;15.07;100.00
39105;BME280;46464;51.154;13.812;2022-10-22T11:25:41;99150.41;;;14.65;100.00
39105;BME280;46464;51.154;13.812;2022-10-22T11:28:22;99141.59;;;14.61;100.00
39105;BME280;46464;51.154;13.812;2022-10-22T11:30:52;99146.50;;;14.42;100.00
39105;BME280;46464;51.154;13.812;2022-10-22T11:33:22;99154.81;;;14.39;100.00
39105;BME280;46464;51.154;13.812;2022-10-22T11:35:50;99140.75;;;14.33;100.00
39105;BME280;46464;51.154;13.812;2022-10-22T11:38:21;99142.91;;;14.28;100.00
39105;BME280;46464;51.154;13.812;2022-10-22T11:40:55;99142.34;;;14.23;100.00
39105;BME280;46464;51.154;13.812;2022-10-22T11:43:32;99146.31;;;14.17;100.00
39105;BME280;46464;51.154;13.812;2022-10-22T11:46:02;99146.22;;;14.19;100.00
39105;BME280;46464;51.154;13.812;2022-10-22T11:48:35;99151.41;;;14.22;100.00
39105;BME280;46464;51.154;13.812;2022-10-22T11:51:01;99150.56;;;14.22;100.00
39105;BME280;46464;51.154;13.812;2022-10-22T11:53:32;99156.03;;;14.20;100.00
39105;BME280;46464;51.154;13.812;2022-10-22T11:58:31;99161.03;;;14.26;100.00
39105;BME280;46464;51.154;13.812;2022-10-22T12:08:44;99153.59;;;14.57;100.00
39105;BME280;46464;51.154;13.812;2022-10-22T12:11:13;99149.50;;;14.64;100.00
39105;BME280;46464;51.154;13.812;2022-10-22T12:16:16;99147.19;;;14.85;100.00
39105;BME280;46464;51.154;13.812;2022-10-22T12:19:11;99148.75;;;15.15;100.00
39105;BME280;46464;51.154;13.812;2022-10-22T12:21:40;99144.63;;;15.23;100.00
39105;BME280;46464;51.154;13.812;2022-10-22T12:24:09;99144.31;;;15.27;100.00
39105;BME280;46464;51.154;13.812;2022-10-22T12:26:38;99146.91;;;15.29;100.00
39105;BME280;46464;51.154;13.812;2022-10-22T12:29:08;99148.75;;;15.41;100.00
39105;BME280;46464;51.154;13.812;2022-10-22T12:31:37;99147.03;;;15.53;100.00
39105;BME280;46464;51.154;13.812;2022-10-22T12:34:03;99143.19;;;15.69;100.00
39105;BME280;46464;51.154;13.812;2022-10-22T12:36:31;99144.94;;;15.82;100.00
39105;BME280;46464;51.154;13.812;2022-10-22T12:38:58;99140.56;;;15.80;100.00
39105;BME280;46464;51.154;13.812;2022-10-22T12:41:31;99145.31;;;16.02;100.00
39105;BME280;46464;51.154;13.812;2022-10-22T12:43:59;99142.28;;;16.07;100.00
39105;BME280;46464;51.154;13.812;2022-10-22T12:46:26;99143.56;;;16.14;100.00
39105;BME280;46464;51.154;13.812;2022-10-22T12:48:53;99138.31;;;16.24;100.00
39105;BME280;46464;51.154;13.812;2022-10-22T12:51:21;99140.63;;;16.41;100.00
39105;BME280;46464;51.154;13.812;2022-10-22T12:53:50;99140.44;;;16.56;100.00
39105;BME280;46464;51.154;13.812;2022-10-22T12:56:33;99147.53;;;16.70;98.97
39105;BME280;46464;51.154;13.812;2022-10-22T12:59:02;99137.94;;;16.77;97.10
39105;BME280;46464;51.154;13.812;2022-10-22T13:01:31;99144.09;;;16.79;92.64
39105;BME280;46464;51.154;13.812;2022-10-22T13:04:04;99146.34;;;16.85;93.32
39105;BME280;46464;51.154;13.812;2022-10-22T13:06:32;99146.53;;;16.95;94.44
39105;BME280;46464;51.154;13.812;2022-10-22T13:11:39;99147.03;;;17.00;94.89
39105;BME280;46464;51.154;13.812;2022-10-22T13:14:25;99153.38;;;17.12;92.28
39105;BME280;46464;51.154;13.812;2022-10-22T13:22:03;99154.78;;;17.29;90.32
39105;BME280;46464;51.154;13.812;2022-10-22T13:24:30;99155.13;;;17.24;89.50
39105;BME280;46464;51.154;13.812;2022-10-22T13:26:56;99156.59;;;17.29;90.68
39105;BME280;46464;51.154;13.812;2022-10-22T13:29:23;99153.41;;;17.35;91.07
39105;BME280;46464;51.154;13.812;2022-10-22T13:31:50;99157.72;;;17.49;90.88
39105;BME280;46464;51.154;13.812;2022-10-22T13:34:21;99157.50;;;17.63;88.65
39105;BME280;46464;51.154;13.812;2022-10-22T13:36:48;99163.06;;;17.62;85.33
39105;BME280;46464;51.154;13.812;2022-10-22T13:39:15;99163.28;;;17.58;85.46
39105;BME280;46464;51.154;13.812;2022-10-22T13:41:43;99162.19;;;17.50;86.47
39105;BME280;46464;51.154;13.812;2022-10-22T13:44:09;99171.09;;;17.52;84.86
39105;BME280;46464;51.154;13.812;2022-10-22T13:46:36;99167.38;;;17.53;83.53
39105;BME280;46464;51.154;13.812;2022-10-22T13:49:18;99172.41;;;17.57;83.88
39105;BME280;46464;51.154;13.812;2022-10-22T13:51:45;99173.31;;;17.58;83.96
39105;BME280;46464;51.154;13.812;2022-10-22T13:54:16;99174.41;;;17.55;83.64
39105;BME280;46464;51.154;13.812;2022-10-22T13:56:44;99166.50;;;17.52;85.13
39105;BME280;46464;51.154;13.812;2022-10-22T13:59:10;99170.69;;;17.45;84.86
39105;BME280;46464;51.154;13.812;2022-10-22T14:01:37;99169.47;;;17.49;84.48
39105;BME280;46464;51.154;13.812;2022-10-22T14:04:05;99178.25;;;17.53;83.33
39105;BME280;46464;51.154;13.812;2022-10-22T14:06:32;99180.22;;;17.51;83.87
39105;BME280;46464;51.154;13.812;2022-10-22T14:09:05;99175.63;;;17.51;83.64
39105;BME280;46464;51.154;13.812;2022-10-22T14:11:34;99176.38;;;17.53;84.15
39105;BME280;46464;51.154;13.812;2022-10-22T14:14:00;99170.09;;;17.53;84.10
39105;BME280;46464;51.154;13.812;2022-10-22T14:16:34;99179.34;;;17.50;84.97
39105;BME280;46464;51.154;13.812;2022-10-22T14:19:02;99180.06;;;17.52;84.59
39105;BME280;46464;51.154;13.812;2022-10-22T14:21:34;99170.81;;;17.55;83.73
39105;BME280;46464;51.154;13.812;2022-10-22T14:24:01;99171.84;;;17.54;85.88
39105;BME280;46464;51.154;13.812;2022-10-22T14:26:29;99176.25;;;17.55;86.28
39105;BME280;46464;51.154;13.812;2022-10-22T14:28:58;99179.50;;;17.60;84.62
39105;BME280;46464;51.154;13.812;2022-10-22T14:31:41;99177.00;;;17.46;83.93
39105;BME280;46464;51.154;13.812;2022-10-22T14:34:10;99179.34;;;17.50;83.63
39105;BME280;46464;51.154;13.812;2022-10-22T14:36:37;99173.31;;;17.47;84.09
39105;BME280;46464;51.154;13.812;2022-10-22T14:39:03;99172.81;;;17.41;83.45